Moores Hill, Indiana
Current Conditions -  °F | °C
As of 7:55 AM on Monday 22 Dec 2014 (Local Time) from KI67 Reporting Station
Overcast Overcast  
Wind Chill: 27°   Ceiling: 4900
Heat Index: 32°   Visibility: 10mi
Dew Point: 28°   Wind: 5mph
Humidity: 87%   Direction: 60°ENE
Pressure: 30.02"   Gusts: NA
Location:  39.11°N, 85.09°W
Report Text: KI67 221255Z AUTO 06004KT 10SM SCT028 OVC049 00/M02 A3002 RMK AO1
Loading
Personal Weather Stations






























Interactive Weather Map New forecast layout! Learn more

10-Day Weather Forecast

Advertisements
Track Severe Weather on mobile